Clarksboro, New Jersey
Current Conditions -  °F | °C
As of 12:54 PM on Monday 22 Dec 2014 (Local Time) from KPHL Reporting Station
Overcast Overcast  
Wind Chill: 42°   Ceiling: 4000
Heat Index: 42°   Visibility: 8mi
Dew Point: 32°   Wind: 3mph
Humidity: 67%   Direction: NA
Pressure: 30.24"   Gusts: NA
Location:  39.8°N, 75.22°W
Report Text: KPHL 221754Z VRB03KT 8SM FEW018 BKN040 OVC100 06/00 A3024 RMK AO2 SLP239 T00560000 10061 21006 58028
Loading
Personal Weather Stations






























Interactive Weather Map New forecast layout! Learn more

10-Day Weather Forecast

Advertisements
Track Severe Weather on mobile